Nyk Apollo — HOQM — position and weather

sailwx.info

Track history (hours):
 
Tides and Currents Weather Stations Pressure Air Temp Water Temp Dewpoint Dewpoint Depression Visibility Wind Speed Wind Dir Waves Ship Positions

Nyk Apollo

Last reported at 2017-Dec-16 12:16 UTC. Time now 2017-Dec-16 16:59 UTC.
Position N 49°01' W 123°09'.

Length 299.9 m; beam 40 m.

Type: Cargo ship. MMSI: 355981000.

Date/timePositionNaut miles runAvg speedWind from/ knotsBaromVisibWave heightAir tempDewpointWater temp
2017-Dec-16 12:16N 49°01' W 123°09'0 0.0
2017-Dec-16 12:01N 49°01' W 123°09'2 3.5
2017-Dec-16 11:30N 48°60' W 123°10'611.2
2017-Dec-16 11:00N 48°55' W 123°05'917.1
2017-Dec-16 10:30N 48°47' W 123°01'1020.0
2017-Dec-16 10:00N 48°42' W 123°14'918.7
2017-Dec-16 09:30N 48°33' W 123°12'918.3
2017-Dec-16 09:00N 48°24' W 123°13'815.1
2017-Dec-16 08:30N 48°21' W 123°23'4 7.9
2017-Dec-16 08:00N 48°18' W 123°25'3 5.9
2017-Dec-16 07:30N 48°15' W 123°27'3 5.5
2017-Dec-16 07:00N 48°12' W 123°26'3 6.4
2017-Dec-16 06:30N 48°10' W 123°22'4 8.4
2017-Dec-16 06:00N 48°10' W 123°16'816.7
2017-Dec-16 05:30N 48°13' W 123°05'918.4
2017-Dec-16 05:00N 48°12' W 122°51'1019.1
2017-Dec-16 04:31N 48°07' W 122°39'1020.1
2017-Dec-16 04:00N 47°57' W 122°33'918.0
2017-Dec-16 03:31N 47°49' W 122°27'918.6
2017-Dec-16 03:01N 47°40' W 122°27'918.8
2017-Dec-16 02:31N 47°31' W 122°25'917.5
2017-Dec-16 02:01N 47°23' W 122°21'612.5
2017-Dec-16 01:30N 47°17' W 122°26'  
2017-Dec-13 07:58N 47°17' W 122°25'2 4.6
2017-Dec-13 07:30N 47°18' W 122°28'511.0
2017-Dec-13 07:00N 47°22' W 122°23'917.1
2017-Dec-13 06:30N 47°31' W 122°26'918.6
2017-Dec-13 06:01N 47°40' W 122°28'815.8
2017-Dec-13 05:30N 47°48' W 122°27'917.1
2017-Dec-13 05:00N 47°56' W 122°31'917.6
2017-Dec-13 04:30N 48°03' W 122°39'917.7
2017-Dec-13 04:00N 48°10' W 122°47'918.1
2017-Dec-13 03:30N 48°12' W 123°00'817.2
2017-Dec-13 03:00N 48°12' W 123°13'714.2
2017-Dec-13 02:30N 48°11' W 123°23'4 8.9
2017-Dec-13 02:00N 48°12' W 123°30'916.9
2017-Dec-13 01:30N 48°13' W 123°42'815.4
2017-Dec-13 01:00N 48°13' W 123°54'816.0
2017-Dec-13 00:30N 48°17' W 124°05'816.2
2017-Dec-13 00:00N 48°20' W 124°16'816.8
2017-Dec-12 23:31N 48°23' W 124°27'816.9
2017-Dec-12 23:01N 48°27' W 124°39'917.0
2017-Dec-12 22:30N 48°29' W 124°52'917.1
2017-Dec-12 22:00N 48°28' W 125°05'918.1
2017-Dec-12 21:30N 48°27' W 125°18'918.0
2017-Dec-12 21:00N 48°27' W 125°32'917.7
2017-Dec-12 20:31N 48°27' W 125°45'917.5
2017-Dec-12 20:01N 48°28' W 125°58'917.6
2017-Dec-12 19:31N 48°29' W 126°11'917.5
2017-Dec-12 19:00N 48°29' W 126°25'917.2
2017-Dec-12 18:31N 48°29' W 126°38'917.3
2017-Dec-12 18:00N 48°29' W 126°51'  
Track history (hours):
 
Tides and Currents Weather Stations Pressure Air Temp Water Temp Dewpoint Dewpoint Depression Visibility Wind Speed Wind Dir Waves Ship Positions

Nyk Apollo

Last reported at 2017-Dec-16 12:16 UTC. Time now 2017-Dec-16 16:59 UTC.
Position N 49°01' W 123°09'.

Length 299.9 m; beam 40 m.

Type: Cargo ship. MMSI: 355981000.

Date/timePositionNaut miles runAvg speedWind from/ knotsBaromVisibWave heightAir tempDewpointWater temp
2017-Dec-16 12:16N 49°01' W 123°09'0 0.0
2017-Dec-16 12:01N 49°01' W 123°09'2 3.5
2017-Dec-16 11:30N 48°60' W 123°10'611.2
2017-Dec-16 11:00N 48°55' W 123°05'917.1
2017-Dec-16 10:30N 48°47' W 123°01'1020.0
2017-Dec-16 10:00N 48°42' W 123°14'918.7
2017-Dec-16 09:30N 48°33' W 123°12'918.3
2017-Dec-16 09:00N 48°24' W 123°13'815.1
2017-Dec-16 08:30N 48°21' W 123°23'4 7.9
2017-Dec-16 08:00N 48°18' W 123°25'3 5.9
2017-Dec-16 07:30N 48°15' W 123°27'3 5.5
2017-Dec-16 07:00N 48°12' W 123°26'3 6.4
2017-Dec-16 06:30N 48°10' W 123°22'4 8.4
2017-Dec-16 06:00N 48°10' W 123°16'816.7
2017-Dec-16 05:30N 48°13' W 123°05'918.4
2017-Dec-16 05:00N 48°12' W 122°51'1019.1
2017-Dec-16 04:31N 48°07' W 122°39'1020.1
2017-Dec-16 04:00N 47°57' W 122°33'918.0
2017-Dec-16 03:31N 47°49' W 122°27'918.6
2017-Dec-16 03:01N 47°40' W 122°27'918.8
2017-Dec-16 02:31N 47°31' W 122°25'917.5
2017-Dec-16 02:01N 47°23' W 122°21'612.5
2017-Dec-16 01:30N 47°17' W 122°26'  
2017-Dec-13 07:58N 47°17' W 122°25'2 4.6
2017-Dec-13 07:30N 47°18' W 122°28'511.0
2017-Dec-13 07:00N 47°22' W 122°23'917.1
2017-Dec-13 06:30N 47°31' W 122°26'918.6
2017-Dec-13 06:01N 47°40' W 122°28'815.8
2017-Dec-13 05:30N 47°48' W 122°27'917.1
2017-Dec-13 05:00N 47°56' W 122°31'917.6
2017-Dec-13 04:30N 48°03' W 122°39'917.7
2017-Dec-13 04:00N 48°10' W 122°47'918.1
2017-Dec-13 03:30N 48°12' W 123°00'817.2
2017-Dec-13 03:00N 48°12' W 123°13'714.2
2017-Dec-13 02:30N 48°11' W 123°23'4 8.9
2017-Dec-13 02:00N 48°12' W 123°30'916.9
2017-Dec-13 01:30N 48°13' W 123°42'815.4
2017-Dec-13 01:00N 48°13' W 123°54'816.0
2017-Dec-13 00:30N 48°17' W 124°05'816.2
2017-Dec-13 00:00N 48°20' W 124°16'816.8
2017-Dec-12 23:31N 48°23' W 124°27'816.9
2017-Dec-12 23:01N 48°27' W 124°39'917.0
2017-Dec-12 22:30N 48°29' W 124°52'917.1
2017-Dec-12 22:00N 48°28' W 125°05'918.1
2017-Dec-12 21:30N 48°27' W 125°18'918.0
2017-Dec-12 21:00N 48°27' W 125°32'917.7
2017-Dec-12 20:31N 48°27' W 125°45'917.5
2017-Dec-12 20:01N 48°28' W 125°58'917.6
2017-Dec-12 19:31N 48°29' W 126°11'917.5
2017-Dec-12 19:00N 48°29' W 126°25'917.2
2017-Dec-12 18:31N 48°29' W 126°38'917.3
2017-Dec-12 18:00N 48°29' W 126°51'  

Dump ship's entire track history